createdAt,value
2022-10-19T00:00:04.181Z,12.40
2022-10-19T00:02:31.386Z,12.30
2022-10-19T00:04:58.524Z,12.30
2022-10-19T00:07:25.594Z,12.30
2022-10-19T00:09:52.800Z,12.30
2022-10-19T00:12:19.908Z,12.30
2022-10-19T00:14:46.955Z,12.30
2022-10-19T00:17:14.091Z,12.30
2022-10-19T00:19:41.196Z,12.20
2022-10-19T00:22:11.600Z,12.20
2022-10-19T00:24:40.998Z,12.20
2022-10-19T00:27:08.163Z,12.20
2022-10-19T00:29:35.263Z,12.30
2022-10-19T00:32:02.341Z,12.20
2022-10-19T00:34:29.643Z,12.20
2022-10-19T00:36:56.744Z,12.20
2022-10-19T00:39:23.784Z,12.20
2022-10-19T00:41:57.758Z,12.20
2022-10-19T00:44:31.334Z,12.10
2022-10-19T00:47:06.328Z,12.10
2022-10-19T00:49:39.343Z,12.10
2022-10-19T00:52:08.252Z,12.00
2022-10-19T00:54:37.143Z,12.00
2022-10-19T00:57:05.213Z,12.10
2022-10-19T00:59:32.795Z,12.00
2022-10-19T01:02:02.873Z,12.10
2022-10-19T01:04:30.821Z,12.10
2022-10-19T01:06:58.517Z,12.10
2022-10-19T01:09:25.868Z,12.00
2022-10-19T01:12:13.276Z,12.30
2022-10-19T01:15:03.287Z,12.00
2022-10-19T01:17:39.982Z,12.80
2022-10-19T01:20:09.810Z,12.10
2022-10-19T01:22:42.857Z,12.10
2022-10-19T01:25:35.589Z,11.90
2022-10-19T01:28:02.694Z,12.10
2022-10-19T01:30:33.314Z,12.10
2022-10-19T01:33:00.357Z,12.10
2022-10-19T01:35:37.402Z,12.20
2022-10-19T01:38:22.395Z,12.10
2022-10-19T01:40:49.417Z,12.10
2022-10-19T01:43:24.812Z,12.10
2022-10-19T01:46:15.007Z,12.10
2022-10-19T01:48:44.610Z,11.50
2022-10-19T01:51:17.055Z,12.10
2022-10-19T01:53:47.583Z,12.10
2022-10-19T01:56:16.843Z,12.20
2022-10-19T01:58:44.989Z,11.40
2022-10-19T02:01:13.487Z,12.50
2022-10-19T02:03:40.655Z,12.20
2022-10-19T02:06:09.036Z,12.20
2022-10-19T02:08:41.952Z,12.20
2022-10-19T02:11:09.076Z,12.20
2022-10-19T02:13:37.213Z,12.00
2022-10-19T02:16:07.327Z,12.10
2022-10-19T02:18:36.750Z,12.20
2022-10-19T02:21:04.235Z,12.10
2022-10-19T02:23:31.368Z,12.20
2022-10-19T02:25:58.806Z,12.10
2022-10-19T02:28:26.698Z,12.20
2022-10-19T02:30:53.906Z,12.10
2022-10-19T02:33:20.957Z,12.80
2022-10-19T02:35:48.335Z,12.10
2022-10-19T02:38:16.589Z,12.10
2022-10-19T02:40:45.123Z,13.60
2022-10-19T02:43:14.249Z,12.10
2022-10-19T02:45:44.910Z,12.20
2022-10-19T02:48:14.277Z,12.20
2022-10-19T02:50:44.844Z,12.10
2022-10-19T02:53:11.926Z,12.10
2022-10-19T02:55:42.156Z,12.20
2022-10-19T02:58:09.533Z,12.10
2022-10-19T03:00:36.599Z,12.20
2022-10-19T03:03:06.054Z,12.20
2022-10-19T03:05:33.172Z,12.70
2022-10-19T03:08:00.253Z,12.10
2022-10-19T03:10:27.309Z,12.20
2022-10-19T03:12:54.396Z,12.20
2022-10-19T03:15:24.733Z,11.40
2022-10-19T03:17:55.530Z,12.20
2022-10-19T03:20:22.940Z,12.20
2022-10-19T03:22:50.546Z,12.10
2022-10-19T03:25:17.676Z,12.20
2022-10-19T03:27:45.293Z,12.20
2022-10-19T03:30:12.380Z,12.10
2022-10-19T03:32:39.427Z,12.20
2022-10-19T03:35:06.825Z,12.10
2022-10-19T03:37:35.044Z,12.10
2022-10-19T03:40:02.430Z,12.10
2022-10-19T03:42:29.574Z,12.10
2022-10-19T03:44:56.649Z,12.10
2022-10-19T03:47:23.752Z,12.20
2022-10-19T03:49:50.849Z,12.20
2022-10-19T03:52:18.739Z,12.20
2022-10-19T03:54:46.718Z,12.20
2022-10-19T03:57:13.792Z,12.30
2022-10-19T03:59:40.901Z,12.30
2022-10-19T04:02:08.540Z,12.40
2022-10-19T04:04:35.795Z,12.40
2022-10-19T04:07:02.919Z,12.50
2022-10-19T04:09:29.989Z,13.00
2022-10-19T04:11:57.019Z,12.50
2022-10-19T04:14:32.407Z,12.50
2022-10-19T04:17:01.214Z,12.60
2022-10-19T04:19:28.348Z,12.50
2022-10-19T04:21:55.506Z,12.60
2022-10-19T04:24:22.608Z,12.60
2022-10-19T04:26:52.524Z,12.60
2022-10-19T04:29:22.823Z,12.60
2022-10-19T04:31:52.739Z,12.70
2022-10-19T04:34:20.205Z,12.70
2022-10-19T04:36:47.394Z,12.70
2022-10-19T04:39:14.687Z,12.70
2022-10-19T04:41:41.746Z,12.80
2022-10-19T04:44:09.698Z,12.80
2022-10-19T04:46:37.465Z,12.80
2022-10-19T04:49:06.264Z,12.90
2022-10-19T04:51:33.406Z,12.90
2022-10-19T04:54:00.493Z,12.80
2022-10-19T04:56:28.135Z,12.80
2022-10-19T04:58:56.637Z,12.90
2022-10-19T05:01:24.608Z,12.90
2022-10-19T05:06:27.998Z,12.90
2022-10-19T05:08:55.409Z,12.90
2022-10-19T05:11:22.553Z,12.90
2022-10-19T05:13:49.720Z,13.00
2022-10-19T05:16:18.088Z,12.90
2022-10-19T05:18:49.104Z,12.90
2022-10-19T05:21:16.743Z,13.00
2022-10-19T05:23:44.037Z,12.90
2022-10-19T05:26:11.049Z,12.90
2022-10-19T05:28:38.813Z,13.00
2022-10-19T05:31:13.514Z,12.80
2022-10-19T05:33:41.224Z,13.00
2022-10-19T05:36:15.904Z,13.00
2022-10-19T05:38:43.474Z,13.00
2022-10-19T05:41:10.777Z,12.10
2022-10-19T05:43:38.115Z,13.00
2022-10-19T05:46:06.235Z,13.00
2022-10-19T05:48:33.911Z,13.00
2022-10-19T05:51:01.552Z,13.00
2022-10-19T05:53:29.360Z,13.00
2022-10-19T05:55:56.531Z,13.00
2022-10-19T05:58:24.993Z,13.00
2022-10-19T06:00:55.605Z,13.10
2022-10-19T06:03:22.837Z,13.10
2022-10-19T06:05:50.273Z,13.10
2022-10-19T06:08:17.809Z,13.10
2022-10-19T06:10:45.247Z,14.20
2022-10-19T06:13:12.639Z,13.10
2022-10-19T06:15:40.346Z,13.10
2022-10-19T06:18:08.273Z,13.10
2022-10-19T06:20:35.893Z,13.10
2022-10-19T06:23:03.514Z,13.10
2022-10-19T06:25:30.775Z,14.10
2022-10-19T06:27:58.092Z,13.10
2022-10-19T06:30:25.337Z,13.20
2022-10-19T06:32:52.652Z,13.20
2022-10-19T06:35:19.935Z,14.00
2022-10-19T06:37:46.999Z,13.20
2022-10-19T06:40:14.166Z,13.20
2022-10-19T06:42:41.335Z,13.20
2022-10-19T06:45:09.493Z,13.20
2022-10-19T06:47:37.225Z,13.30
2022-10-19T06:50:05.407Z,13.30
2022-10-19T06:52:33.537Z,13.20
2022-10-19T06:55:00.971Z,13.20
2022-10-19T06:57:28.731Z,13.30
2022-10-19T06:59:55.798Z,14.90
2022-10-19T07:02:22.901Z,13.20
2022-10-19T07:04:50.044Z,13.40
2022-10-19T07:07:17.103Z,13.30
2022-10-19T07:09:44.178Z,13.30
2022-10-19T07:12:11.385Z,13.40
2022-10-19T07:14:39.764Z,13.40
2022-10-19T07:17:07.280Z,13.40
2022-10-19T07:19:34.972Z,13.40
2022-10-19T07:22:02.060Z,13.50
2022-10-19T07:24:29.606Z,13.50
2022-10-19T07:26:56.717Z,13.60
2022-10-19T07:29:23.766Z,13.50
2022-10-19T07:31:50.858Z,14.50
2022-10-19T07:34:17.962Z,13.60
2022-10-19T07:36:46.119Z,13.70
2022-10-19T07:39:13.285Z,13.60
2022-10-19T07:41:40.374Z,13.70
2022-10-19T07:44:08.947Z,13.70
2022-10-19T07:46:38.680Z,13.80
2022-10-19T07:49:10.011Z,13.80
2022-10-19T07:51:37.615Z,13.80
2022-10-19T07:54:05.100Z,13.80
2022-10-19T07:56:32.285Z,13.80
2022-10-19T07:59:00.035Z,13.90
2022-10-19T08:01:28.530Z,13.90
2022-10-19T08:06:44.087Z,14.10
2022-10-19T08:09:22.764Z,14.00
2022-10-19T08:11:58.468Z,14.10
2022-10-19T08:14:26.270Z,14.10
2022-10-19T08:16:53.356Z,14.10
2022-10-19T08:19:22.564Z,14.20
2022-10-19T08:21:49.900Z,14.20
2022-10-19T08:24:18.379Z,14.20
2022-10-19T08:26:45.684Z,14.30
2022-10-19T08:29:16.810Z,14.20
2022-10-19T08:31:44.583Z,14.20
2022-10-19T08:34:12.389Z,14.30
2022-10-19T08:36:39.483Z,14.30
2022-10-19T08:39:07.885Z,14.30
2022-10-19T08:41:40.993Z,14.30
2022-10-19T08:44:26.235Z,15.00
2022-10-19T08:47:02.789Z,14.30
2022-10-19T08:49:31.035Z,14.30
2022-10-19T08:51:59.389Z,14.50
2022-10-19T08:54:37.879Z,14.40
2022-10-19T08:57:24.335Z,14.50
2022-10-19T08:59:57.261Z,14.50
2022-10-19T09:02:30.208Z,14.50
2022-10-19T09:05:00.324Z,14.60
2022-10-19T09:07:29.237Z,14.50
2022-10-19T09:10:17.291Z,14.50
2022-10-19T09:12:44.402Z,14.60
2022-10-19T09:15:12.990Z,13.70
2022-10-19T09:17:40.066Z,14.60
2022-10-19T09:20:18.126Z,14.60
2022-10-19T09:22:46.265Z,14.60
2022-10-19T09:25:15.072Z,14.60
2022-10-19T09:27:44.598Z,14.70
2022-10-19T09:30:21.620Z,14.70
2022-10-19T09:32:50.197Z,14.80
2022-10-19T09:35:23.265Z,14.70
2022-10-19T09:37:51.215Z,14.80
2022-10-19T09:40:22.522Z,14.80
2022-10-19T09:42:57.310Z,15.70
2022-10-19T09:45:42.909Z,14.70
2022-10-19T09:48:16.684Z,14.80
2022-10-19T09:50:44.677Z,14.80
2022-10-19T09:53:19.745Z,14.80
2022-10-19T09:55:55.995Z,14.90
2022-10-19T09:58:32.889Z,14.90
2022-10-19T10:01:01.713Z,15.10
2022-10-19T10:03:30.408Z,15.10
2022-10-19T10:06:14.625Z,15.20
2022-10-19T10:08:49.598Z,15.30
2022-10-19T10:11:37.816Z,15.20
2022-10-19T10:14:09.933Z,15.30
2022-10-19T10:16:37.273Z,15.30
2022-10-19T10:19:06.324Z,15.30
2022-10-19T10:21:45.684Z,15.30
2022-10-19T10:24:12.746Z,15.20
2022-10-19T10:26:41.400Z,15.10
2022-10-19T10:29:19.680Z,16.20
2022-10-19T10:31:55.634Z,15.00
2022-10-19T10:34:45.456Z,15.00
2022-10-19T10:37:19.861Z,14.60
2022-10-19T10:39:51.020Z,15.60
2022-10-19T10:42:20.114Z,15.00
2022-10-19T10:44:51.851Z,15.00
2022-10-19T10:47:22.525Z,15.00
2022-10-19T10:50:01.218Z,15.00
2022-10-19T10:52:30.730Z,15.10
2022-10-19T10:54:59.078Z,15.10
2022-10-19T10:57:28.412Z,15.20
2022-10-19T11:00:00.193Z,15.20
2022-10-19T11:02:49.389Z,15.20
2022-10-19T11:05:19.788Z,15.10
2022-10-19T11:07:49.028Z,15.10
2022-10-19T11:10:20.408Z,15.10
2022-10-19T11:13:16.856Z,15.10
2022-10-19T11:15:47.054Z,15.00
2022-10-19T11:18:20.459Z,15.00
2022-10-19T11:20:58.119Z,14.90
2022-10-19T11:23:37.532Z,15.00
2022-10-19T11:26:04.617Z,15.00
2022-10-19T11:28:53.040Z,15.00
2022-10-19T11:31:30.308Z,15.10
2022-10-19T11:34:07.062Z,15.10
2022-10-19T11:36:37.187Z,15.10
2022-10-19T11:39:04.264Z,15.20
2022-10-19T11:41:55.579Z,15.20
2022-10-19T11:44:35.060Z,15.20
2022-10-19T11:47:20.843Z,15.20
2022-10-19T11:49:53.740Z,15.30
2022-10-19T11:52:21.210Z,15.30
2022-10-19T11:55:03.522Z,15.40
2022-10-19T11:57:36.646Z,15.30
2022-10-19T12:00:15.158Z,15.30
2022-10-19T12:03:12.841Z,15.30
2022-10-19T12:06:10.945Z,15.70
2022-10-19T12:08:43.050Z,15.30
2022-10-19T12:11:10.107Z,15.30
2022-10-19T12:13:42.289Z,15.20
2022-10-19T12:16:11.076Z,15.20
2022-10-19T12:18:41.186Z,15.20
2022-10-19T12:21:10.968Z,15.10
2022-10-19T12:23:39.882Z,15.10
2022-10-19T12:26:08.570Z,15.10
2022-10-19T12:28:37.999Z,15.10
2022-10-19T12:31:05.946Z,15.10
2022-10-19T12:33:44.075Z,15.10
2022-10-19T12:36:11.153Z,15.10
2022-10-19T12:38:59.760Z,15.20
2022-10-19T12:41:31.410Z,16.70
2022-10-19T12:44:01.237Z,15.20
2022-10-19T12:46:34.445Z,15.30
2022-10-19T12:49:20.696Z,15.40
2022-10-19T12:51:47.813Z,15.40
2022-10-19T12:54:14.893Z,15.40
2022-10-19T12:56:50.103Z,15.50
2022-10-19T12:59:22.904Z,15.50
2022-10-19T13:01:50.596Z,15.50
2022-10-19T13:04:17.646Z,15.50
2022-10-19T13:06:51.604Z,15.50
2022-10-19T13:09:28.409Z,15.50
2022-10-19T13:12:21.525Z,16.30
2022-10-19T13:15:01.292Z,15.30
2022-10-19T13:17:34.656Z,15.60
2022-10-19T13:20:25.687Z,15.50
2022-10-19T13:23:04.910Z,15.50
2022-10-19T13:25:33.104Z,15.40
2022-10-19T13:28:02.025Z,15.30
2022-10-19T13:30:38.364Z,15.40
2022-10-19T13:33:29.904Z,15.30
2022-10-19T13:35:59.855Z,15.30
2022-10-19T13:41:25.606Z,15.20
2022-10-19T13:44:03.195Z,15.20
2022-10-19T13:46:30.241Z,15.20
2022-10-19T13:48:57.316Z,15.20
2022-10-19T13:51:33.288Z,15.60
2022-10-19T13:54:03.119Z,15.20
2022-10-19T13:56:39.373Z,15.20
2022-10-19T13:59:09.238Z,15.10
2022-10-19T14:01:39.519Z,15.10
2022-10-19T14:04:06.594Z,15.10
2022-10-19T14:06:38.661Z,15.10
2022-10-19T14:09:17.869Z,15.10
2022-10-19T14:11:49.857Z,15.50
2022-10-19T14:14:19.654Z,15.10
2022-10-19T14:17:04.058Z,15.10
2022-10-19T14:19:33.268Z,15.10
2022-10-19T14:22:01.419Z,15.00
2022-10-19T14:24:30.455Z,15.00
2022-10-19T14:26:59.530Z,14.60
2022-10-19T14:29:26.611Z,14.90
2022-10-19T14:31:54.130Z,14.90
2022-10-19T14:34:21.505Z,15.20
2022-10-19T14:36:49.281Z,15.00
2022-10-19T14:39:42.410Z,15.10
2022-10-19T14:42:10.350Z,15.10
2022-10-19T14:44:39.696Z,15.20
2022-10-19T14:47:27.344Z,15.20
2022-10-19T14:49:54.446Z,15.30
2022-10-19T14:52:47.606Z,15.20
2022-10-19T14:55:17.875Z,15.20
2022-10-19T14:57:47.634Z,15.20
2022-10-19T15:00:20.038Z,15.20
2022-10-19T15:02:53.021Z,15.20
2022-10-19T15:05:24.625Z,15.10
2022-10-19T15:07:51.928Z,15.10
2022-10-19T15:10:29.373Z,15.10
2022-10-19T15:13:01.769Z,14.70
2022-10-19T15:15:30.444Z,15.10
2022-10-19T15:18:00.643Z,15.10
2022-10-19T15:20:43.995Z,15.10
2022-10-19T15:23:36.446Z,14.10
2022-10-19T15:26:41.989Z,15.10
2022-10-19T15:29:10.239Z,15.00
2022-10-19T15:31:37.423Z,15.00
2022-10-19T15:34:05.396Z,14.90
2022-10-19T15:36:32.817Z,15.00
2022-10-19T15:39:17.519Z,15.00
2022-10-19T15:41:48.546Z,15.00
2022-10-19T15:44:42.110Z,15.00
2022-10-19T15:47:15.233Z,15.00
2022-10-19T15:49:42.362Z,14.90
2022-10-19T15:52:16.156Z,14.90
2022-10-19T15:54:43.268Z,15.60
2022-10-19T15:57:25.512Z,14.90
2022-10-19T15:59:52.988Z,15.10
2022-10-19T16:02:20.076Z,14.90
2022-10-19T16:04:47.278Z,14.90
2022-10-19T16:07:20.244Z,14.90
2022-10-19T16:09:47.316Z,14.90
2022-10-19T16:12:14.369Z,14.90
2022-10-19T16:14:41.584Z,14.80
2022-10-19T16:17:10.183Z,14.80
2022-10-19T16:19:37.286Z,14.80
2022-10-19T16:22:04.419Z,14.80
2022-10-19T16:24:31.550Z,14.70
2022-10-19T16:26:58.726Z,14.70
2022-10-19T16:29:28.918Z,14.70
2022-10-19T16:31:56.409Z,14.70
2022-10-19T16:34:23.463Z,14.70
2022-10-19T16:36:50.632Z,14.80
2022-10-19T16:39:17.904Z,14.90
2022-10-19T16:41:45.182Z,14.60
2022-10-19T16:44:12.837Z,14.60
2022-10-19T16:46:39.893Z,14.60
2022-10-19T16:49:06.986Z,14.60
2022-10-19T16:51:37.832Z,14.70
2022-10-19T16:54:05.613Z,13.00
2022-10-19T16:56:33.443Z,14.50
2022-10-19T16:59:01.984Z,14.50
2022-10-19T17:01:29.711Z,14.50
2022-10-19T17:03:57.214Z,14.50
2022-10-19T17:06:25.042Z,14.50
2022-10-19T17:09:29.860Z,14.50
2022-10-19T17:11:40.908Z,14.50
2022-10-19T17:14:10.895Z,14.50
2022-10-19T17:16:38.272Z,14.50
2022-10-19T17:19:06.156Z,14.40
2022-10-19T17:21:35.438Z,14.40
2022-10-19T17:24:02.707Z,14.40
2022-10-19T17:26:32.842Z,14.40
2022-10-19T17:29:00.417Z,13.70
2022-10-19T17:31:27.842Z,14.50
2022-10-19T17:33:55.050Z,14.40
2022-10-19T17:36:25.235Z,14.40
2022-10-19T17:38:53.094Z,14.40
2022-10-19T17:41:20.522Z,14.40
2022-10-19T17:43:48.903Z,14.40
2022-10-19T17:46:16.826Z,14.40
2022-10-19T17:48:44.574Z,14.40
2022-10-19T17:51:13.238Z,14.70
2022-10-19T17:53:40.389Z,14.50
2022-10-19T17:56:08.098Z,14.40
2022-10-19T17:58:39.038Z,14.70
2022-10-19T18:01:07.857Z,14.40
2022-10-19T18:03:35.565Z,14.40
2022-10-19T18:06:06.843Z,14.40
2022-10-19T18:08:38.459Z,14.50
2022-10-19T18:11:07.095Z,14.50
2022-10-19T18:13:34.637Z,14.50
2022-10-19T18:16:06.540Z,14.50
2022-10-19T18:18:35.686Z,14.50
2022-10-19T18:21:06.859Z,14.50
2022-10-19T18:23:34.221Z,14.30
2022-10-19T18:26:05.330Z,14.50
2022-10-19T18:28:32.895Z,14.70
2022-10-19T18:31:06.895Z,14.50
2022-10-19T18:33:34.405Z,14.50
2022-10-19T18:36:01.887Z,14.50
2022-10-19T18:38:28.988Z,14.50
2022-10-19T18:40:56.646Z,14.50
2022-10-19T18:43:23.781Z,14.50
2022-10-19T18:45:52.089Z,15.20
2022-10-19T18:48:19.319Z,14.50
2022-10-19T18:50:46.430Z,14.50
2022-10-19T18:53:14.323Z,14.60
2022-10-19T18:55:41.804Z,14.50
2022-10-19T18:58:09.496Z,14.60
2022-10-19T19:00:36.783Z,14.60
2022-10-19T19:03:03.986Z,14.60
2022-10-19T19:05:32.249Z,14.60
2022-10-19T19:07:59.363Z,14.60
2022-10-19T19:10:26.461Z,14.60
2022-10-19T19:12:53.533Z,14.70
2022-10-19T19:15:20.626Z,14.80
2022-10-19T19:17:47.759Z,14.80
2022-10-19T19:20:14.854Z,14.80
2022-10-19T19:22:42.036Z,14.90
2022-10-19T19:25:09.237Z,14.90
2022-10-19T19:27:36.430Z,14.90
2022-10-19T19:30:04.835Z,15.00
2022-10-19T19:32:32.191Z,15.00
2022-10-19T19:34:59.384Z,15.00
2022-10-19T19:37:26.458Z,15.00
2022-10-19T19:39:53.617Z,15.00
2022-10-19T19:42:22.343Z,14.90
2022-10-19T19:44:52.910Z,15.00
2022-10-19T19:47:20.034Z,14.90
2022-10-19T19:49:47.157Z,14.90
2022-10-19T19:52:14.290Z,14.90
2022-10-19T19:54:41.482Z,15.00
2022-10-19T19:57:08.599Z,14.90
2022-10-19T19:59:36.049Z,14.90
2022-10-19T20:02:04.237Z,14.90
2022-10-19T20:04:31.877Z,14.90
2022-10-19T20:06:58.956Z,14.90
2022-10-19T20:09:26.568Z,14.90
2022-10-19T20:11:53.679Z,14.90
2022-10-19T20:14:20.814Z,15.60
2022-10-19T20:16:47.916Z,14.90
2022-10-19T20:19:15.094Z,14.80
2022-10-19T20:21:42.413Z,14.90
2022-10-19T20:24:09.817Z,14.90
2022-10-19T20:26:37.011Z,14.90
2022-10-19T20:29:04.806Z,15.40
2022-10-19T20:31:33.587Z,14.90
2022-10-19T20:34:00.819Z,14.90
2022-10-19T20:36:27.968Z,14.90
2022-10-19T20:38:56.229Z,14.90
2022-10-19T20:41:24.723Z,14.90
2022-10-19T20:43:53.659Z,14.80
2022-10-19T20:46:22.389Z,14.90
2022-10-19T20:48:50.418Z,14.80
2022-10-19T20:51:17.668Z,14.80
2022-10-19T20:53:46.423Z,15.40
2022-10-19T20:56:17.682Z,14.80
2022-10-19T20:58:45.390Z,14.70
2022-10-19T21:01:16.861Z,14.80
2022-10-19T21:03:48.143Z,14.80
2022-10-19T21:06:15.304Z,14.80
2022-10-19T21:08:42.503Z,14.80
2022-10-19T21:11:17.516Z,14.70
2022-10-19T21:13:45.078Z,14.70
2022-10-19T21:16:16.427Z,14.70
2022-10-19T21:18:44.431Z,14.70
2022-10-19T21:21:14.347Z,14.70
2022-10-19T21:23:41.869Z,14.70
2022-10-19T21:26:09.015Z,14.70
2022-10-19T21:28:36.296Z,14.70
2022-10-19T21:31:04.521Z,14.70
2022-10-19T21:33:31.660Z,14.30
2022-10-19T21:36:02.584Z,14.60
2022-10-19T21:38:30.003Z,14.60
2022-10-19T21:40:58.514Z,14.60
2022-10-19T21:43:25.810Z,14.60
2022-10-19T21:45:53.229Z,14.60
2022-10-19T21:48:20.410Z,15.00
2022-10-19T21:50:47.632Z,14.60
2022-10-19T21:53:19.443Z,14.60
2022-10-19T21:55:46.775Z,14.60
2022-10-19T21:58:13.876Z,14.60
2022-10-19T22:00:40.966Z,14.60
2022-10-19T22:03:08.070Z,14.60
2022-10-19T22:05:35.162Z,14.70
2022-10-19T22:08:02.387Z,14.60
2022-10-19T22:10:29.437Z,14.70
2022-10-19T22:12:56.572Z,14.70
2022-10-19T22:15:23.706Z,14.60
2022-10-19T22:17:51.413Z,14.60
2022-10-19T22:20:18.530Z,14.60
2022-10-19T22:22:45.582Z,14.70
2022-10-19T22:25:12.625Z,14.70
2022-10-19T22:27:39.692Z,14.70
2022-10-19T22:30:07.020Z,14.70
2022-10-19T22:32:34.354Z,14.70
2022-10-19T22:35:01.629Z,14.70
2022-10-19T22:37:28.728Z,15.40
2022-10-19T22:39:55.851Z,14.70
2022-10-19T22:42:22.954Z,14.70
2022-10-19T22:44:50.032Z,14.70
2022-10-19T22:47:17.093Z,14.80
2022-10-19T22:49:44.213Z,14.70
2022-10-19T22:52:11.273Z,14.70
2022-10-19T22:54:38.367Z,14.70
2022-10-19T22:57:05.471Z,14.70
2022-10-19T22:59:33.165Z,14.70
2022-10-19T23:02:00.364Z,14.70
2022-10-19T23:04:27.485Z,14.70
2022-10-19T23:06:55.090Z,14.70
2022-10-19T23:09:22.375Z,14.80
2022-10-19T23:11:49.509Z,14.70
2022-10-19T23:14:16.576Z,14.70
2022-10-19T23:16:43.696Z,14.70
2022-10-19T23:19:10.745Z,14.70
2022-10-19T23:21:37.810Z,14.70
2022-10-19T23:24:04.935Z,14.70
2022-10-19T23:26:32.003Z,15.70
2022-10-19T23:28:59.066Z,14.70
2022-10-19T23:31:26.749Z,14.50
2022-10-19T23:33:54.267Z,14.60
2022-10-19T23:36:28.512Z,14.70
2022-10-19T23:38:56.052Z,14.50
2022-10-19T23:41:23.474Z,14.70
2022-10-19T23:43:50.599Z,14.70
2022-10-19T23:46:17.643Z,14.60
2022-10-19T23:48:44.733Z,14.70
2022-10-19T23:51:13.142Z,14.70
2022-10-19T23:53:41.735Z,14.70
2022-10-19T23:56:19.759Z,14.70
2022-10-19T23:58:47.181Z,14.70
